Time;durP1;ratioP1;P1;durP2;ratioP2;P2;SDS_P1;SDS_P2;PMS_P1;PMS_P2;Temp;Humidity;BMP_temperature;BMP_pressure;BME280_temperature;BME280_humidity;BME280_pressure;Samples;Min_cycle;Max_cycle;Signal;HPM_P1;HPM_P2
2021/07/12 00:01:45;;;;;;;16.77;8.32;;;;;;;21.28;56.61;100020.06;5113393;28;20523;-73
2021/07/12 00:04:12;;;;;;;14.93;8.38;;;;;;;21.21;57.00;100029.00;5098990;28;20104;-79
2021/07/12 00:06:37;;;;;;;14.13;8.18;;;;;;;21.17;56.97;100024.00;5075073;28;20051;-76
2021/07/12 00:09:04;;;;;;;15.73;9.25;;;;;;;21.11;57.48;100027.41;5074578;28;20051;-72
2021/07/12 00:11:30;;;;;;;14.38;8.32;;;;;;;21.06;57.13;100021.72;5074670;28;20048;-75
2021/07/12 00:13:56;;;;;;;14.20;8.13;;;;;;;21.03;57.73;100022.06;5074730;28;20100;-74
2021/07/12 00:16:22;;;;;;;14.85;7.45;;;;;;;20.98;57.82;100030.66;5092916;28;20071;-73
2021/07/12 00:18:48;;;;;;;14.20;8.45;;;;;;;20.95;57.81;100024.81;5092574;28;20054;-75
2021/07/12 00:21:15;;;;;;;14.30;9.10;;;;;;;20.94;58.10;100023.97;5092934;28;20043;-75
2021/07/12 00:23:41;;;;;;;17.70;8.70;;;;;;;20.93;58.07;100027.66;5092787;28;20093;-72
2021/07/12 00:26:07;;;;;;;18.00;9.48;;;;;;;20.92;57.97;100025.16;5092516;28;20044;-74
2021/07/12 00:28:33;;;;;;;14.40;9.45;;;;;;;20.89;58.30;100029.06;5074760;28;20047;-76
2021/07/12 00:31:02;;;;;;;19.02;9.88;;;;;;;20.89;57.96;100023.66;5092669;28;20389;-74
2021/07/12 00:33:28;;;;;;;22.08;11.63;;;;;;;20.87;57.50;100028.38;5092117;28;20044;-73
2021/07/12 00:35:54;;;;;;;18.10;12.38;;;;;;;20.87;57.50;100030.25;5092389;28;20097;-74
2021/07/12 00:38:23;;;;;;;23.13;17.13;;;;;;;20.84;57.47;100034.94;5092015;28;20128;-73
2021/07/12 00:40:49;;;;;;;23.20;16.90;;;;;;;20.81;57.39;100029.94;5091551;28;20093;-72
2021/07/12 00:43:15;;;;;;;21.95;15.77;;;;;;;20.79;57.40;100031.97;5057252;28;20039;-73
2021/07/12 00:45:42;;;;;;;21.20;13.15;;;;;;;20.75;57.39;100030.66;5073893;28;20035;-74
2021/07/12 00:48:08;;;;;;;17.65;12.95;;;;;;;20.70;57.76;100035.69;5073634;28;20042;-74
2021/07/12 00:50:37;;;;;;;22.52;15.90;;;;;;;20.68;57.55;100040.38;5092079;28;20230;-71
2021/07/12 00:53:04;;;;;;;22.20;14.73;;;;;;;20.63;57.73;100040.09;5092047;28;20062;-73
2021/07/12 00:55:34;;;;;;;19.58;14.75;;;;;;;20.62;57.84;100041.09;5057532;28;20075;-75
2021/07/12 00:58:05;;;;;;;21.17;15.23;;;;;;;20.64;57.60;100034.53;5073772;28;20511;-73
2021/07/12 01:00:31;;;;;;;23.40;16.10;;;;;;;20.67;57.43;100038.72;5091661;28;20044;-74
2021/07/12 01:02:57;;;;;;;20.92;13.55;;;;;;;20.67;57.67;100038.72;5092089;28;20558;-74
2021/07/12 01:05:27;;;;;;;17.73;13.32;;;;;;;20.65;57.61;100038.06;5073970;28;20082;-73
2021/07/12 01:07:54;;;;;;;16.40;12.25;;;;;;;20.59;57.94;100038.75;5091734;28;20097;-74
2021/07/12 01:10:21;;;;;;;16.92;10.65;;;;;;;20.57;57.95;100044.28;5073513;28;20044;-74
2021/07/12 01:12:47;;;;;;;;;;;;;;;20.56;58.02;100047.16;5057870;28;20096;-73
2021/07/12 01:15:16;;;;;;;16.77;9.80;;;;;;;20.56;57.78;100041.78;5091785;28;19915;-71
2021/07/12 01:18:15;;;;;;;17.45;9.40;;;;;;;20.55;57.99;100046.34;5073511;28;20040;-72
2021/07/12 01:21:09;;;;;;;12.63;8.68;;;;;;;20.53;58.06;100043.78;5091695;28;20059;-73
2021/07/12 01:23:58;;;;;;;19.33;10.45;;;;;;;20.52;58.00;100047.53;5074280;28;20044;-73
2021/07/12 01:26:42;;;;;;;22.42;13.73;;;;;;;20.53;58.44;100045.66;5028904;28;20057;-72
2021/07/12 01:29:10;;;;;;;15.77;9.25;;;;;;;20.49;58.64;100047.84;5029093;28;20045;-73
2021/07/12 01:32:01;;;;;;;13.30;8.80;;;;;;;20.47;58.69;100049.91;5012485;28;20144;-75
2021/07/12 01:34:57;;;;;;;15.98;8.32;;;;;;;20.48;58.73;100048.88;5029099;28;20124;-72
2021/07/12 01:37:24;;;;;;;12.80;7.78;;;;;;;20.47;58.24;100065.16;5028837;28;20050;-73
2021/07/12 01:40:19;;;;;;;13.70;7.57;;;;;;;20.47;58.32;100060.66;5012530;28;20573;-75
2021/07/12 01:43:03;;;;;;;14.15;7.72;;;;;;;20.48;58.21;100051.53;5029120;28;20041;-71
2021/07/12 01:45:33;;;;;;;19.83;10.98;;;;;;;20.47;58.17;100060.66;5028794;28;20045;-74
2021/07/12 01:48:05;;;;;;;15.52;7.65;;;;;;;20.47;58.10;100057.97;5012349;28;20045;-75
2021/07/12 01:50:54;;;;;;;15.35;7.25;;;;;;;20.51;58.11;100066.47;5013707;28;20042;-74
2021/07/12 01:53:44;;;;;;;13.52;7.22;;;;;;;20.46;58.53;100061.66;5000422;28;20815;-72
2021/07/12 01:56:16;;;;;;;12.25;7.00;;;;;;;20.45;58.52;100077.94;4999448;28;20049;-73
2021/07/12 01:58:53;;;;;;;13.10;6.50;;;;;;;20.44;58.62;100079.78;5016080;28;20136;-73
2021/07/12 02:01:22;;;;;;;16.38;7.68;;;;;;;20.44;58.30;100063.66;5004096;28;20095;-73
2021/07/12 02:03:50;;;;;;;13.65;6.40;;;;;;;20.46;58.22;100061.66;5046241;28;20459;-73
2021/07/12 02:06:20;;;;;;;11.20;6.28;;;;;;;20.52;58.06;100069.03;5076289;28;20048;-73
2021/07/12 02:08:48;;;;;;;12.88;6.00;;;;;;;20.55;57.92;100073.22;5076927;28;20052;-72
2021/07/12 02:11:20;;;;;;;11.77;5.82;;;;;;;20.56;57.93;100074.88;5060910;28;20122;-73
2021/07/12 02:13:48;;;;;;;10.18;5.40;;;;;;;20.59;57.87;100073.69;5076864;28;20626;-73
2021/07/12 02:16:20;;;;;;;7.82;5.40;;;;;;;20.61;57.90;100077.03;5076785;28;20055;-74
2021/07/12 02:18:47;;;;;;;12.82;5.90;;;;;;;20.64;58.02;100071.31;5060291;28;20066;-73
2021/07/12 02:21:33;;;;;;;8.68;5.20;;;;;;;20.68;57.71;100080.72;5062534;28;20071;-76
2021/07/12 02:24:06;;;;;;;7.72;4.82;;;;;;;20.70;57.68;100076.00;5078058;28;20511;-72
2021/07/12 02:26:35;;;;;;;10.30;5.70;;;;;;;20.68;57.80;100078.03;5076638;28;20128;-73
2021/07/12 02:29:04;;;;;;;9.23;5.47;;;;;;;20.68;57.75;100072.63;5094909;28;20048;-72
2021/07/12 02:31:34;;;;;;;8.52;5.63;;;;;;;20.67;57.79;100076.34;5060169;28;20518;-73
2021/07/12 02:34:03;;;;;;;11.68;5.78;;;;;;;20.68;57.83;100075.31;5060088;28;20052;-74
2021/07/12 02:36:30;;;;;;;8.18;5.72;;;;;;;20.68;57.84;100078.03;5076224;28;20042;-73
2021/07/12 02:38:57;;;;;;;9.85;5.70;;;;;;;20.71;57.69;100085.78;5076430;28;20101;-72
2021/07/12 02:41:25;;;;;;;8.85;5.43;;;;;;;20.72;58.13;100079.38;5076138;28;20048;-73
2021/07/12 02:43:53;;;;;;;13.07;5.55;;;;;;;20.76;58.02;100080.72;5094349;28;20131;-73
2021/07/12 02:46:24;;;;;;;12.93;5.78;;;;;;;20.80;57.59;100084.72;5059485;28;20090;-74
2021/07/12 02:48:51;;;;;;;15.55;5.72;;;;;;;20.84;57.35;100086.03;5076123;28;20039;-73
2021/07/12 02:51:21;;;;;;;10.82;5.75;;;;;;;20.88;57.15;100094.59;5094485;28;20112;-73
2021/07/12 02:53:55;;;;;;;10.55;5.78;;;;;;;20.88;57.20;100089.22;5094171;28;20089;-74
2021/07/12 02:56:21;;;;;;;10.60;6.38;;;;;;;20.91;57.19;100093.41;5059191;28;20051;-73
2021/07/12 02:58:47;;;;;;;12.73;6.03;;;;;;;20.93;57.00;100092.22;5092830;28;20040;-74
2021/07/12 03:01:14;;;;;;;14.85;6.43;;;;;;;20.96;57.02;100091.00;5075524;28;20044;-73
2021/07/12 03:03:40;;;;;;;12.40;6.75;;;;;;;20.98;56.64;100095.19;5075039;28;20055;-75
2021/07/12 03:06:14;;;;;;;9.65;6.30;;;;;;;21.01;56.79;100094.03;5076007;28;20389;-74
2021/07/12 03:08:54;;;;;;;11.48;6.35;;;;;;;21.04;57.37;100093.66;5095282;28;20209;-73
2021/07/12 03:11:31;;;;;;;11.45;6.47;;;;;;;21.08;56.89;100094.97;5095013;28;20590;-73
2021/07/12 03:14:00;;;;;;;11.00;6.50;;;;;;;21.12;56.76;100096.31;5113128;28;20047;-73
2021/07/12 03:16:32;;;;;;;33.60;20.35;;;;;;;21.20;56.62;100108.03;5096031;28;20054;-74
2021/07/12 03:19:01;;;;;;;9.38;5.95;;;;;;;21.24;56.46;100104.81;5114215;28;20043;-74
2021/07/12 03:21:27;;;;;;;10.48;5.82;;;;;;;21.31;56.50;100104.97;5114005;28;20096;-73
2021/07/12 03:23:55;;;;;;;11.77;6.63;;;;;;;21.37;56.24;100108.78;5095602;28;20036;-75
2021/07/12 03:26:23;;;;;;;12.80;6.68;;;;;;;21.41;56.10;100104.69;5095723;28;20049;-77
2021/07/12 03:28:52;;;;;;;15.57;6.63;;;;;;;21.44;56.24;100107.88;5096178;28;20127;-73
2021/07/12 03:31:22;;;;;;;13.07;7.03;;;;;;;21.52;56.09;100111.53;5095139;28;20472;-73
2021/07/12 03:33:50;;;;;;;13.32;7.28;;;;;;;21.57;55.79;100107.34;5078687;28;20047;-76
2021/07/12 03:36:17;;;;;;;13.95;6.78;;;;;;;21.63;55.36;100109.31;5078186;28;20385;-72
2021/07/12 03:38:44;;;;;;;15.27;7.32;;;;;;;21.67;55.47;100107.09;5095616;28;20047;-74
2021/07/12 03:41:10;;;;;;;14.93;8.47;;;;;;;21.71;55.34;100100.31;5095535;28;20051;-72
2021/07/12 03:43:40;;;;;;;14.52;7.35;;;;;;;21.78;55.04;100103.13;5094972;28;20032;-72
2021/07/12 03:46:06;;;;;;;16.48;7.63;;;;;;;21.86;55.45;100103.06;5094720;28;20100;-75
2021/07/12 03:48:41;;;;;;;17.05;7.55;;;;;;;21.92;54.87;100112.25;5093096;28;20035;-74
2021/07/12 03:51:13;;;;;;;18.00;8.20;;;;;;;21.97;54.57;100107.19;5102025;28;20109;-75
2021/07/12 03:53:43;;;;;;;15.45;7.05;;;;;;;21.99;54.74;100110.50;5096095;28;20411;-76
2021/07/12 03:56:08;;;;;;;12.52;6.97;;;;;;;22.08;54.43;100105.88;5110185;28;20035;-75
2021/07/12 03:58:34;;;;;;;13.07;7.82;;;;;;;22.12;54.01;100105.34;5113405;28;20059;-74
2021/07/12 04:01:00;;;;;;;12.35;6.60;;;;;;;22.20;53.95;100104.41;5111254;28;20040;-74
2021/07/12 04:03:26;;;;;;;11.10;6.82;;;;;;;22.32;53.38;100103.94;5074618;28;20324;-72
2021/07/12 04:05:52;;;;;;;14.13;6.53;;;;;;;23.24;51.77;100103.56;5092813;28;20048;-75
2021/07/12 04:08:18;;;;;;;14.35;7.00;;;;;;;25.22;47.46;100112.63;5094813;28;20066;-76
2021/07/12 04:10:44;;;;;;;12.27;6.50;;;;;;;26.85;43.24;100105.09;5099486;28;20098;-76
2021/07/12 04:13:12;;;;;;;10.13;5.88;;;;;;;27.81;41.27;100107.06;5113184;28;20488;-75
2021/07/12 04:15:38;;;;;;;10.60;5.55;;;;;;;28.25;39.58;100110.66;5113073;28;20138;-77
2021/07/12 04:18:05;;;;;;;10.98;5.55;;;;;;;29.08;37.64;100105.75;5128843;27;20126;-75
2021/07/12 04:20:31;;;;;;;;;;;;;;;29.60;35.97;100107.16;5112082;28;20043;-76
2021/07/12 04:22:57;;;;;;;11.00;6.10;;;;;;;30.26;35.23;100101.66;5111029;28;19962;-77
2021/07/12 04:25:23;;;;;;;11.52;6.40;;;;;;;31.65;32.87;100098.97;5112463;28;20047;-76
2021/07/12 04:27:49;;;;;;;9.30;6.28;;;;;;;32.36;31.52;100098.44;5112387;28;20518;-77
2021/07/12 04:30:16;;;;;;;10.40;5.90;;;;;;;33.13;29.73;100094.97;5112787;28;20127;-79
2021/07/12 04:32:42;;;;;;;8.05;5.43;;;;;;;34.11;29.27;100093.06;5095075;28;20044;-77
2021/07/12 04:35:10;;;;;;;9.90;4.77;;;;;;;34.01;28.48;100091.94;5112977;28;20073;-77
2021/07/12 04:37:36;;;;;;;7.22;4.75;;;;;;;34.24;28.00;100089.88;5112592;28;20039;-82
2021/07/12 04:40:02;;;;;;;11.40;5.20;;;;;;;34.02;28.26;100090.00;5077980;28;20444;-75
2021/07/12 04:42:29;;;;;;;9.50;5.00;;;;;;;34.25;28.17;100088.78;5112630;28;20061;-76
2021/07/12 04:44:55;;;;;;;8.60;5.80;;;;;;;33.71;28.52;100087.84;5112919;28;20039;-76
2021/07/12 04:47:21;;;;;;;6.23;4.73;;;;;;;34.96;27.53;100081.97;5112012;28;20520;-75
2021/07/12 04:49:46;;;;;;;8.20;4.80;;;;;;;34.95;27.44;100088.56;5112659;28;20046;-76
2021/07/12 04:52:12;;;;;;;8.23;4.87;;;;;;;35.21;27.18;100083.13;5112491;28;20077;-77
2021/07/12 04:54:38;;;;;;;10.77;5.77;;;;;;;35.17;26.70;100075.69;5112478;28;20388;-75
2021/07/12 04:57:04;;;;;;;7.72;5.10;;;;;;;36.07;25.38;100077.91;5112400;28;20076;-77
2021/07/12 04:59:31;;;;;;;9.30;6.10;;;;;;;36.11;25.74;100073.50;5112285;28;20181;-77
2021/07/12 05:01:57;;;;;;;12.07;5.95;;;;;;;36.23;24.76;100075.94;5112153;28;20040;-79
2021/07/12 05:04:23;;;;;;;11.25;5.63;;;;;;;36.27;24.52;100070.69;5112800;28;20388;-78
2021/07/12 05:06:48;;;;;;;9.03;6.00;;;;;;;36.64;24.59;100074.13;5077454;28;20511;-75
2021/07/12 05:09:15;;;;;;;9.90;5.57;;;;;;;37.61;23.43;100071.88;5112643;28;21018;-80
2021/07/12 05:11:41;;;;;;;9.63;6.20;;;;;;;37.63;23.52;100075.19;5095001;28;20122;-78
2021/07/12 05:14:07;;;;;;;10.40;5.85;;;;;;;37.14;23.64;100074.16;5077476;28;20043;-75
2021/07/12 05:16:34;;;;;;;8.63;5.40;;;;;;;37.83;23.41;100072.22;5094391;28;20036;-77
2021/07/12 05:18:59;;;;;;;11.20;6.05;;;;;;;37.70;23.37;100078.44;5112298;28;20051;-78
2021/07/12 05:21:28;;;;;;;11.93;7.32;;;;;;;37.92;23.29;100071.63;5094075;28;20050;-79
2021/07/12 05:23:54;;;;;;;7.88;5.82;;;;;;;37.92;23.04;100077.13;5093901;28;20043;-77
2021/07/12 05:26:20;;;;;;;9.73;5.93;;;;;;;39.23;21.77;100081.59;5114032;28;20047;-76
2021/07/12 05:28:45;;;;;;;11.38;6.38;;;;;;;38.88;22.19;100078.22;5081386;28;20039;-78
2021/07/12 05:31:11;;;;;;;9.75;5.35;;;;;;;39.93;21.07;100082.66;5098143;28;20048;-76
2021/07/12 05:33:37;;;;;;;10.40;6.22;;;;;;;40.42;20.45;100077.56;5116138;28;20051;-76
2021/07/12 05:36:03;;;;;;;13.82;7.30;;;;;;;40.44;20.72;100081.66;5115950;28;20044;-79
2021/07/12 05:38:29;;;;;;;11.77;7.25;;;;;;;40.46;20.34;100086.06;5116185;28;20562;-79
2021/07/12 05:40:55;;;;;;;17.70;8.27;;;;;;;40.41;20.29;100073.94;5116041;28;20043;-79
2021/07/12 05:43:20;;;;;;;13.45;6.13;;;;;;;40.24;20.35;100079.28;5115959;28;20047;-77
2021/07/12 05:45:47;;;;;;;12.13;6.40;;;;;;;39.76;20.79;100075.72;5097471;28;20092;-79
2021/07/12 05:48:12;;;;;;;10.57;6.00;;;;;;;40.69;19.96;100079.50;5098520;28;20040;-79
2021/07/12 05:50:38;;;;;;;;;;;;;;;41.45;19.30;100091.91;5081254;28;20044;-81
2021/07/12 05:53:04;;;;;;;10.07;5.80;;;;;;;40.79;19.51;100084.00;5097605;28;19916;-78
2021/07/12 05:55:30;;;;;;;9.15;6.15;;;;;;;41.54;18.63;100084.44;5115471;28;20070;-77
2021/07/12 05:57:56;;;;;;;;;;;;;;;41.00;18.83;100095.47;5115863;28;20039;-77
2021/07/12 06:00:22;;;;;;;15.85;6.75;;;;;;;41.42;19.04;100083.38;5080517;28;20375;-78
2021/07/12 06:02:48;;;;;;;13.07;6.00;;;;;;;40.43;19.26;100082.78;5080702;28;20063;-79
2021/07/12 06:05:14;;;;;;;11.07;5.55;;;;;;;41.44;18.48;100083.88;5081026;28;20055;-80
2021/07/12 06:07:40;;;;;;;;;;;;;;;42.06;17.68;100085.06;5116456;28;20059;-78
2021/07/12 06:10:07;;;;;;;11.45;5.78;;;;;;;41.66;18.64;100089.44;5080839;28;19920;-80
2021/07/12 06:12:33;;;;;;;11.13;6.30;;;;;;;42.00;18.34;100076.88;5097766;28;20074;-78
2021/07/12 06:14:59;;;;;;;;;;;;;;;42.69;17.32;100082.97;5081589;28;20114;-81
2021/07/12 06:17:25;;;;;;;11.15;6.57;;;;;;;42.07;18.20;100075.59;5080067;28;20010;-84
2021/07/12 06:19:51;;;;;;;13.57;6.93;;;;;;;42.66;17.21;100084.44;5064988;28;20084;-81
2021/07/12 06:22:17;;;;;;;14.70;6.22;;;;;;;42.53;17.38;100084.59;5080656;28;20453;-81
2021/07/12 06:24:43;;;;;;;;;;;;;;;42.92;16.19;100080.91;5116635;28;20075;-77
2021/07/12 06:27:09;;;;;;;11.43;5.47;;;;;;;42.73;16.65;100080.38;5097685;28;20293;-81
2021/07/12 06:29:34;;;;;;;;;;;;;;;43.01;16.72;100080.91;5080944;28;20092;-79
2021/07/12 06:32:00;;;;;;;11.98;5.22;;;;;;;43.28;16.66;100079.75;5080986;28;19919;-77
2021/07/12 06:34:26;;;;;;;9.00;5.47;;;;;;;44.20;15.28;100082.47;5097307;28;20377;-82
2021/07/12 06:36:55;;;;;;;8.82;4.80;;;;;;;44.35;14.79;100086.66;5115945;28;20046;-81
2021/07/12 06:39:21;;;;;;;6.85;4.13;;;;;;;43.44;15.09;100084.81;5080954;28;20047;-78
2021/07/12 06:41:47;;;;;;;11.65;6.68;;;;;;;43.15;15.48;100078.78;5097442;28;20066;-80
2021/07/12 06:44:13;;;;;;;5.72;3.88;;;;;;;43.98;15.14;100072.38;5080810;28;20043;-82
2021/07/12 06:46:49;;;;;;;7.18;4.10;;;;;;;42.98;15.41;100081.53;5050768;28;20104;-79
2021/07/12 06:49:16;;;;;;;5.57;3.47;;;;;;;43.75;14.80;100078.19;5080020;28;20092;-79
2021/07/12 06:51:42;;;;;;;9.55;4.40;;;;;;;43.97;14.92;100081.91;5115689;28;20047;-81
2021/07/12 06:54:08;;;;;;;10.95;5.85;;;;;;;43.60;14.47;100074.78;5063343;28;20063;-79
2021/07/12 06:56:34;;;;;;;12.38;4.30;;;;;;;43.73;14.96;100084.09;5096556;28;20498;-79
2021/07/12 06:59:00;;;;;;;7.88;5.47;;;;;;;43.13;15.30;100083.03;5096827;28;20046;-79
2021/07/12 07:01:27;;;;;;;11.15;5.65;;;;;;;43.67;14.99;100084.59;5063612;28;20039;-79
2021/07/12 07:03:56;;;;;;;6.32;5.15;;;;;;;43.11;15.91;100074.19;5081059;28;20048;-80
2021/07/12 07:06:22;;;;;;;5.53;4.47;;;;;;;42.95;15.40;100083.00;5096557;28;20499;-78
2021/07/12 07:08:50;;;;;;;7.10;4.53;;;;;;;42.88;15.62;100088.25;5096228;28;20048;-78
2021/07/12 07:11:16;;;;;;;10.48;5.13;;;;;;;42.81;15.67;100090.72;5063110;28;20047;-84
2021/07/12 07:13:45;;;;;;;7.68;4.72;;;;;;;43.34;15.68;100085.16;5096485;28;20051;-80
2021/07/12 07:16:11;;;;;;;6.60;4.57;;;;;;;43.67;15.15;100087.38;5096283;28;20151;-78
2021/07/12 07:18:36;;;;;;;4.75;4.20;;;;;;;43.77;14.75;100090.66;5114516;28;20054;-81
2021/07/12 07:21:06;;;;;;;5.28;4.20;;;;;;;43.72;14.29;100092.78;5114589;28;20468;-80
2021/07/12 07:23:32;;;;;;;7.10;4.40;;;;;;;43.86;14.37;100092.59;5114660;28;20063;-77
2021/07/12 07:25:58;;;;;;;5.15;4.20;;;;;;;43.97;14.53;100088.31;5114660;28;20042;-80
2021/07/12 07:28:25;;;;;;;8.10;4.50;;;;;;;44.11;14.39;100090.88;5096478;28;20459;-79
2021/07/12 07:30:52;;;;;;;8.13;4.72;;;;;;;43.58;14.77;100096.59;5114872;28;20130;-79
2021/07/12 07:33:18;;;;;;;9.75;7.35;;;;;;;44.29;14.51;100094.38;5096476;28;20096;-83
2021/07/12 07:35:45;;;;;;;5.72;4.28;;;;;;;44.61;14.12;100088.47;5079379;28;20043;-79
2021/07/12 07:38:11;;;;;;;7.95;4.75;;;;;;;44.59;14.54;100081.25;5078848;28;20494;-81
2021/07/12 07:40:37;;;;;;;5.13;4.32;;;;;;;44.68;14.52;100083.16;5078980;28;20046;-78
2021/07/12 07:43:03;;;;;;;6.70;4.20;;;;;;;44.47;14.53;100081.19;5114782;28;20051;-78
2021/07/12 07:45:32;;;;;;;8.48;4.80;;;;;;;44.84;14.01;100080.59;5114522;28;20050;-77
2021/07/12 07:47:59;;;;;;;6.63;4.20;;;;;;;43.69;14.24;100077.53;5114500;28;20044;-79
2021/07/12 07:50:24;;;;;;;8.27;4.28;;;;;;;43.32;15.04;100074.34;5078436;28;20518;-78
2021/07/12 07:52:51;;;;;;;8.07;4.35;;;;;;;43.90;14.64;100074.84;5078914;28;20047;-80
2021/07/12 07:55:17;;;;;;;5.05;4.40;;;;;;;44.27;14.29;100069.63;5079404;28;20047;-83
2021/07/12 07:57:44;;;;;;;4.70;4.03;;;;;;;43.75;14.58;100065.06;5114012;28;20572;-81
2021/07/12 08:00:12;;;;;;;6.47;4.13;;;;;;;43.77;14.88;100070.31;5079327;28;20427;-78
2021/07/12 08:02:41;;;;;;;5.75;4.65;;;;;;;43.57;14.36;100067.09;5114108;28;20043;-78
2021/07/12 08:05:08;;;;;;;11.20;5.00;;;;;;;43.28;15.13;100068.63;5113891;28;20059;-81
2021/07/12 08:07:34;;;;;;;6.90;4.72;;;;;;;42.62;15.56;100077.91;5095940;28;20055;-82
2021/07/12 08:10:06;;;;;;;5.78;4.60;;;;;;;42.61;15.95;100073.47;5079487;28;20039;-79
2021/07/12 08:12:32;;;;;;;7.55;4.68;;;;;;;42.67;15.50;100076.91;5078770;28;20066;-79
2021/07/12 08:14:58;;;;;;;5.20;4.43;;;;;;;43.41;15.17;100060.41;5079023;28;20456;-79
2021/07/12 08:17:23;;;;;;;;;;;;;;;43.82;14.22;100078.50;5095788;28;20047;-80
2021/07/12 08:19:49;;;;;;;4.30;3.90;;;;;;;43.33;14.06;100064.00;5095387;28;19919;-78
2021/07/12 08:22:18;;;;;;;6.72;3.90;;;;;;;42.64;14.77;100067.25;5095386;28;20122;-82
2021/07/12 08:24:44;;;;;;;5.10;3.55;;;;;;;42.08;14.90;100066.13;5078764;28;20562;-83
2021/07/12 08:27:10;;;;;;;4.20;3.80;;;;;;;41.94;15.45;100078.16;5045210;28;20043;-78
2021/07/12 08:29:38;;;;;;;4.38;3.95;;;;;;;41.77;15.50;100069.72;5078891;28;20035;-83
2021/07/12 08:32:05;;;;;;;4.80;4.30;;;;;;;41.26;16.46;100069.84;5095359;28;20035;-80
2021/07/12 08:34:32;;;;;;;;;;;;;;;41.26;16.23;100080.97;5095502;28;20048;-78
2021/07/12 08:36:58;;;;;;;5.22;4.40;;;;;;;41.43;15.79;100068.38;5114490;28;20496;-80
2021/07/12 08:39:24;;;;;;;;;;;;;;;43.15;14.88;100061.25;5079567;28;20047;-79
2021/07/12 08:41:50;;;;;;;4.95;4.40;;;;;;;43.98;14.60;100052.88;5078624;28;19920;-80
2021/07/12 08:44:15;;;;;;;;;;;;;;;43.93;14.73;100059.41;5095441;28;20040;-80
2021/07/12 08:46:41;;;;;;;8.20;5.43;;;;;;;43.57;15.31;100050.38;5095586;28;19922;-80
2021/07/12 08:49:07;;;;;;;8.50;5.05;;;;;;;44.00;15.53;100045.00;5095144;28;20084;-80
2021/07/12 08:51:33;;;;;;;4.47;3.78;;;;;;;43.24;14.66;100044.53;5096255;28;20035;-78
2021/07/12 08:53:58;;;;;;;4.50;4.10;;;;;;;42.79;14.75;100040.13;5079161;28;20043;-82
2021/07/12 08:56:25;;;;;;;4.40;3.88;;;;;;;42.43;15.26;100042.00;5113420;28;20036;-81
2021/07/12 08:58:54;;;;;;;7.47;4.40;;;;;;;40.84;17.05;100041.41;5095481;28;20134;-77
2021/07/12 09:01:21;;;;;;;6.47;4.90;;;;;;;40.80;17.01;100057.88;5076753;28;20036;-81
2021/07/12 09:03:50;;;;;;;6.78;4.18;;;;;;;41.65;16.48;100040.56;5061237;28;20040;-82
2021/07/12 09:06:21;;;;;;;7.47;4.70;;;;;;;42.15;15.95;100033.94;5095128;28;20040;-81
2021/07/12 09:08:55;;;;;;;7.22;4.38;;;;;;;42.26;15.56;100039.19;5095321;28;20059;-80
2021/07/12 09:11:42;;;;;;;6.55;4.43;;;;;;;42.64;15.58;100027.50;5061159;28;20039;-80
2021/07/12 09:14:10;;;;;;;7.32;4.38;;;;;;;43.56;14.51;100034.81;5113594;28;20051;-80
2021/07/12 09:16:44;;;;;;;6.43;4.13;;;;;;;42.24;14.96;100036.72;5113362;28;20043;-85
2021/07/12 09:19:30;;;;;;;8.48;4.38;;;;;;;42.03;16.01;100026.19;5061916;28;20058;-81
2021/07/12 09:22:02;;;;;;;4.85;4.32;;;;;;;41.74;16.15;100029.50;5045060;28;20092;-80
2021/07/12 09:24:36;;;;;;;7.72;4.70;;;;;;;41.01;16.71;100041.59;5078229;28;20576;-84
2021/07/12 09:27:04;;;;;;;5.03;4.25;;;;;;;42.07;15.17;100031.13;5079079;28;20536;-84
2021/07/12 09:29:33;;;;;;;5.47;4.47;;;;;;;41.64;16.17;100038.94;5077258;28;20438;-82
2021/07/12 09:32:03;;;;;;;5.10;4.32;;;;;;;40.51;16.99;100034.09;5078277;28;20072;-78
2021/07/12 09:34:30;;;;;;;6.07;4.50;;;;;;;40.81;17.00;100030.97;5113931;28;20062;-82
2021/07/12 09:36:56;;;;;;;6.43;4.60;;;;;;;42.23;15.90;100029.53;5078292;28;20055;-83
2021/07/12 09:39:38;;;;;;;7.18;4.43;;;;;;;43.26;15.62;100015.22;5094965;28;20039;-79
2021/07/12 09:42:08;;;;;;;8.90;4.60;;;;;;;42.96;15.08;100030.97;5094490;28;20165;-79
2021/07/12 09:44:38;;;;;;;6.57;4.90;;;;;;;41.91;16.45;100034.34;5112197;28;20048;-81
2021/07/12 09:47:08;;;;;;;8.65;5.28;;;;;;;41.42;16.67;100037.00;5077579;28;20471;-79
2021/07/12 09:49:34;;;;;;;6.57;4.35;;;;;;;42.25;16.41;100031.97;5112362;28;20044;-83
2021/07/12 09:52:02;;;;;;;5.25;3.92;;;;;;;42.14;15.76;100037.03;5077896;28;20040;-82
2021/07/12 09:54:35;;;;;;;6.68;4.70;;;;;;;40.87;16.35;100057.47;5077834;28;20054;-82
2021/07/12 09:57:14;;;;;;;4.40;3.55;;;;;;;40.04;16.75;100041.69;5094603;28;20031;-81
2021/07/12 09:59:58;;;;;;;3.78;3.45;;;;;;;40.67;16.47;100037.38;5044398;28;20055;-79
2021/07/12 10:02:25;;;;;;;4.40;3.40;;;;;;;40.45;16.53;100029.78;5093607;28;20092;-80
2021/07/12 10:04:56;;;;;;;3.90;3.50;;;;;;;40.29;16.54;100026.53;5094065;28;20039;-85
2021/07/12 10:07:23;;;;;;;3.50;3.20;;;;;;;39.82;17.01;100028.56;5060532;28;20089;-83
2021/07/12 10:09:48;;;;;;;4.05;3.13;;;;;;;39.61;16.59;100028.91;5095480;28;20114;-82
2021/07/12 10:12:15;;;;;;;5.72;3.13;;;;;;;39.77;16.69;100022.00;5063203;28;20050;-80
2021/07/12 10:14:40;;;;;;;;;;;;;;;38.83;16.94;100026.56;5064644;28;20114;-76
2021/07/12 10:17:09;;;;;;;6.90;3.53;;;;;;;38.58;17.23;100014.72;5081118;28;20018;-80
2021/07/12 10:19:34;;;;;;;4.68;2.83;;;;;;;38.72;17.34;100014.81;5098271;28;20036;-78
2021/07/12 10:22:00;;;;;;;3.70;3.40;;;;;;;39.19;17.27;100012.16;5097729;28;20046;-77
2021/07/12 10:24:33;;;;;;;4.18;3.35;;;;;;;38.42;18.50;100013.31;5081102;28;20411;-81
2021/07/12 10:27:00;;;;;;;4.53;3.42;;;;;;;38.28;18.53;100015.94;5098483;28;20035;-84
2021/07/12 10:29:30;;;;;;;3.67;3.30;;;;;;;38.24;18.51;100004.66;5047680;28;20181;-84
2021/07/12 10:31:59;;;;;;;4.82;3.40;;;;;;;38.08;18.94;99995.75;5116415;28;20453;-78
2021/07/12 10:34:27;;;;;;;4.80;3.20;;;;;;;37.28;18.92;100014.44;5097974;28;20035;-80
2021/07/12 10:37:05;;;;;;;3.30;3.00;;;;;;;36.94;18.38;100011.69;5116368;28;20050;-81
2021/07/12 10:40:05;;;;;;;3.67;2.63;;;;;;;37.23;17.40;99998.75;5097907;28;20184;-81
2021/07/12 10:42:43;;;;;;;3.88;2.83;;;;;;;37.76;17.83;99988.91;5036289;28;20056;-80
2021/07/12 10:45:36;;;;;;;4.78;3.50;;;;;;;37.90;18.08;99999.28;5036776;28;20053;-81
2021/07/12 10:48:08;;;;;;;4.13;3.70;;;;;;;36.64;19.78;100002.47;5013949;28;20044;-81
2021/07/12 10:50:41;;;;;;;4.05;3.65;;;;;;;36.18;20.39;100001.59;5036837;28;20058;-80
2021/07/12 10:53:16;;;;;;;5.57;4.03;;;;;;;35.63;21.95;100002.25;5020446;28;20057;-80
2021/07/12 10:56:06;;;;;;;6.07;4.43;;;;;;;35.60;21.90;99999.25;5040730;28;20048;-79
2021/07/12 10:58:32;;;;;;;5.30;4.18;;;;;;;36.13;21.53;99987.84;5038497;28;20055;-80
2021/07/12 11:01:02;;;;;;;4.55;3.33;;;;;;;35.91;19.81;100002.75;5036273;28;20045;-80
2021/07/12 11:03:46;;;;;;;4.95;3.90;;;;;;;35.89;20.99;99991.22;5035959;28;20105;-79
2021/07/12 11:06:19;;;;;;;4.07;3.78;;;;;;;36.48;20.64;99988.00;5036291;28;20465;-85
2021/07/12 11:09:10;;;;;;;5.07;3.65;;;;;;;36.57;20.55;99992.59;5004299;28;20075;-80
2021/07/12 11:11:38;;;;;;;6.13;3.70;;;;;;;35.44;21.29;99987.44;5035546;28;20057;-80
2021/07/12 11:14:08;;;;;;;8.48;4.30;;;;;;;35.09;22.03;99989.06;5003355;28;20037;-79
2021/07/12 11:16:38;;;;;;;5.32;4.55;;;;;;;35.26;22.99;99986.84;5019398;28;20343;-79
2021/07/12 11:19:27;;;;;;;5.40;4.45;;;;;;;34.50;23.50;99996.63;5072790;28;20043;-83
2021/07/12 11:22:12;;;;;;;4.15;3.75;;;;;;;34.51;22.64;99987.31;5097396;28;20542;-79
2021/07/12 11:24:39;;;;;;;6.75;4.63;;;;;;;35.10;22.13;99982.47;5079425;28;20043;-79
2021/07/12 11:27:06;;;;;;;4.65;4.22;;;;;;;35.12;22.47;99991.28;5097505;28;20043;-78
2021/07/12 11:29:34;;;;;;;4.38;3.70;;;;;;;34.49;23.02;99997.72;5080166;28;20126;-78
2021/07/12 11:32:03;;;;;;;4.63;3.85;;;;;;;33.97;22.76;99992.00;5097175;28;20036;-77
2021/07/12 11:35:05;;;;;;;4.57;4.00;;;;;;;33.99;23.63;99986.25;5096751;28;20067;-79